sensor_id;sensor_type;location;lat;lon;timestamp;P1;durP1;ratioP1;P2;durP2;ratioP2
76373;SDS011;65197;50.164;8.012;2023-01-29T00:01:46;13.27;;;6.07;;
76373;SDS011;65197;50.164;8.012;2023-01-29T00:04:13;10.50;;;7.22;;
76373;SDS011;65197;50.164;8.012;2023-01-29T00:06:39;13.80;;;7.63;;
76373;SDS011;65197;50.164;8.012;2023-01-29T00:09:04;13.80;;;6.55;;
76373;SDS011;65197;50.164;8.012;2023-01-29T00:11:30;12.68;;;6.57;;
76373;SDS011;65197;50.164;8.012;2023-01-29T00:13:56;11.70;;;6.53;;
76373;SDS011;65197;50.164;8.012;2023-01-29T00:16:21;12.27;;;7.13;;
76373;SDS011;65197;50.164;8.012;2023-01-29T00:18:47;12.90;;;6.88;;
76373;SDS011;65197;50.164;8.012;2023-01-29T00:21:14;12.10;;;6.78;;
76373;SDS011;65197;50.164;8.012;2023-01-29T00:23:44;12.70;;;7.22;;
76373;SDS011;65197;50.164;8.012;2023-01-29T00:26:13;12.63;;;7.13;;
76373;SDS011;65197;50.164;8.012;2023-01-29T00:28:39;12.57;;;7.15;;
76373;SDS011;65197;50.164;8.012;2023-01-29T00:31:06;14.32;;;7.43;;
76373;SDS011;65197;50.164;8.012;2023-01-29T00:33:32;12.65;;;7.00;;
76373;SDS011;65197;50.164;8.012;2023-01-29T00:36:00;12.60;;;7.13;;
76373;SDS011;65197;50.164;8.012;2023-01-29T00:38:26;12.00;;;7.28;;
76373;SDS011;65197;50.164;8.012;2023-01-29T00:40:52;11.75;;;7.38;;
76373;SDS011;65197;50.164;8.012;2023-01-29T00:43:36;11.43;;;6.78;;
76373;SDS011;65197;50.164;8.012;2023-01-29T00:46:20;13.93;;;8.13;;
76373;SDS011;65197;50.164;8.012;2023-01-29T00:48:45;12.68;;;7.88;;
76373;SDS011;65197;50.164;8.012;2023-01-29T00:51:10;14.93;;;7.25;;
76373;SDS011;65197;50.164;8.012;2023-01-29T00:53:36;11.00;;;7.47;;
76373;SDS011;65197;50.164;8.012;2023-01-29T00:56:01;12.77;;;7.90;;
76373;SDS011;65197;50.164;8.012;2023-01-29T00:58:26;14.15;;;7.70;;
76373;SDS011;65197;50.164;8.012;2023-01-29T01:00:58;14.25;;;7.32;;
76373;SDS011;65197;50.164;8.012;2023-01-29T01:03:27;13.50;;;8.05;;
76373;SDS011;65197;50.164;8.012;2023-01-29T01:06:03;12.55;;;7.40;;
76373;SDS011;65197;50.164;8.012;2023-01-29T01:08:31;12.73;;;7.28;;
76373;SDS011;65197;50.164;8.012;2023-01-29T01:11:37;12.30;;;7.13;;
76373;SDS011;65197;50.164;8.012;2023-01-29T01:14:02;14.07;;;7.78;;
76373;SDS011;65197;50.164;8.012;2023-01-29T01:16:27;13.35;;;7.70;;
76373;SDS011;65197;50.164;8.012;2023-01-29T01:18:53;11.43;;;7.00;;
76373;SDS011;65197;50.164;8.012;2023-01-29T01:21:20;10.27;;;6.20;;
76373;SDS011;65197;50.164;8.012;2023-01-29T01:23:46;10.20;;;6.80;;
76373;SDS011;65197;50.164;8.012;2023-01-29T01:26:15;10.73;;;7.03;;
76373;SDS011;65197;50.164;8.012;2023-01-29T01:28:44;12.02;;;7.32;;
76373;SDS011;65197;50.164;8.012;2023-01-29T01:31:12;12.65;;;7.18;;
76373;SDS011;65197;50.164;8.012;2023-01-29T01:33:39;11.20;;;6.97;;
76373;SDS011;65197;50.164;8.012;2023-01-29T01:36:05;10.18;;;6.30;;
76373;SDS011;65197;50.164;8.012;2023-01-29T01:38:34;10.77;;;6.80;;
76373;SDS011;65197;50.164;8.012;2023-01-29T01:41:09;12.48;;;6.90;;
76373;SDS011;65197;50.164;8.012;2023-01-29T01:43:56;12.55;;;7.05;;
76373;SDS011;65197;50.164;8.012;2023-01-29T01:46:24;11.80;;;7.18;;
76373;SDS011;65197;50.164;8.012;2023-01-29T01:48:54;10.38;;;6.45;;
76373;SDS011;65197;50.164;8.012;2023-01-29T01:51:24;11.27;;;6.60;;
76373;SDS011;65197;50.164;8.012;2023-01-29T01:53:57;10.02;;;5.95;;
76373;SDS011;65197;50.164;8.012;2023-01-29T01:59:02;11.18;;;6.97;;
76373;SDS011;65197;50.164;8.012;2023-01-29T02:01:31;11.88;;;6.57;;
76373;SDS011;65197;50.164;8.012;2023-01-29T02:04:00;11.55;;;6.57;;
76373;SDS011;65197;50.164;8.012;2023-01-29T02:06:47;12.95;;;7.05;;
76373;SDS011;65197;50.164;8.012;2023-01-29T02:09:38;11.57;;;5.85;;
76373;SDS011;65197;50.164;8.012;2023-01-29T02:12:08;11.48;;;6.43;;
76373;SDS011;65197;50.164;8.012;2023-01-29T02:14:36;12.25;;;6.63;;
76373;SDS011;65197;50.164;8.012;2023-01-29T02:17:05;11.50;;;7.25;;
76373;SDS011;65197;50.164;8.012;2023-01-29T02:22:40;11.15;;;6.65;;
76373;SDS011;65197;50.164;8.012;2023-01-29T02:37:06;12.27;;;6.82;;
76373;SDS011;65197;50.164;8.012;2023-01-29T02:39:16;14.00;;;8.00;;
76373;SDS011;65197;50.164;8.012;2023-01-29T02:44:37;11.63;;;7.03;;
76373;SDS011;65197;50.164;8.012;2023-01-29T02:49:43;12.43;;;7.55;;
76373;SDS011;65197;50.164;8.012;2023-01-29T02:52:20;15.70;;;8.35;;
76373;SDS011;65197;50.164;8.012;2023-01-29T02:54:52;14.10;;;8.32;;
76373;SDS011;65197;50.164;8.012;2023-01-29T02:57:36;14.70;;;8.13;;
76373;SDS011;65197;50.164;8.012;2023-01-29T03:00:48;16.17;;;8.88;;
76373;SDS011;65197;50.164;8.012;2023-01-29T03:08:23;13.52;;;7.72;;
76373;SDS011;65197;50.164;8.012;2023-01-29T03:11:02;15.98;;;8.40;;
76373;SDS011;65197;50.164;8.012;2023-01-29T03:16:10;15.63;;;7.65;;
76373;SDS011;65197;50.164;8.012;2023-01-29T03:18:54;12.65;;;7.55;;
76373;SDS011;65197;50.164;8.012;2023-01-29T03:21:24;12.75;;;7.45;;
76373;SDS011;65197;50.164;8.012;2023-01-29T03:24:17;12.10;;;7.57;;
76373;SDS011;65197;50.164;8.012;2023-01-29T03:27:06;17.50;;;8.70;;
76373;SDS011;65197;50.164;8.012;2023-01-29T03:29:53;13.98;;;8.30;;
76373;SDS011;65197;50.164;8.012;2023-01-29T03:32:40;17.70;;;9.20;;
76373;SDS011;65197;50.164;8.012;2023-01-29T03:35:09;15.35;;;9.18;;
76373;SDS011;65197;50.164;8.012;2023-01-29T03:37:45;15.93;;;8.18;;
76373;SDS011;65197;50.164;8.012;2023-01-29T03:40:15;13.65;;;8.90;;
76373;SDS011;65197;50.164;8.012;2023-01-29T03:42:48;14.05;;;8.93;;
76373;SDS011;65197;50.164;8.012;2023-01-29T03:45:45;14.30;;;8.48;;
76373;SDS011;65197;50.164;8.012;2023-01-29T03:48:24;15.93;;;8.68;;
76373;SDS011;65197;50.164;8.012;2023-01-29T03:56:53;15.02;;;8.27;;
76373;SDS011;65197;50.164;8.012;2023-01-29T03:59:32;16.63;;;8.25;;
76373;SDS011;65197;50.164;8.012;2023-01-29T04:05:56;17.38;;;9.35;;
76373;SDS011;65197;50.164;8.012;2023-01-29T04:08:35;14.15;;;7.82;;
76373;SDS011;65197;50.164;8.012;2023-01-29T04:11:07;18.33;;;8.85;;
76373;SDS011;65197;50.164;8.012;2023-01-29T04:13:38;17.90;;;9.43;;
76373;SDS011;65197;50.164;8.012;2023-01-29T04:16:04;16.55;;;9.80;;
76373;SDS011;65197;50.164;8.012;2023-01-29T04:18:34;13.98;;;8.93;;
76373;SDS011;65197;50.164;8.012;2023-01-29T04:21:00;17.45;;;9.73;;
76373;SDS011;65197;50.164;8.012;2023-01-29T04:23:26;15.70;;;9.00;;
76373;SDS011;65197;50.164;8.012;2023-01-29T04:25:53;15.05;;;9.35;;
76373;SDS011;65197;50.164;8.012;2023-01-29T04:28:41;17.13;;;9.18;;
76373;SDS011;65197;50.164;8.012;2023-01-29T04:31:23;16.70;;;9.15;;
76373;SDS011;65197;50.164;8.012;2023-01-29T04:34:12;16.70;;;9.13;;
76373;SDS011;65197;50.164;8.012;2023-01-29T04:37:03;18.88;;;9.20;;
76373;SDS011;65197;50.164;8.012;2023-01-29T04:39:55;14.77;;;8.55;;
76373;SDS011;65197;50.164;8.012;2023-01-29T04:42:46;16.02;;;7.70;;
76373;SDS011;65197;50.164;8.012;2023-01-29T04:45:26;19.70;;;8.63;;
76373;SDS011;65197;50.164;8.012;2023-01-29T04:51:03;17.50;;;9.10;;
76373;SDS011;65197;50.164;8.012;2023-01-29T04:56:35;20.50;;;9.43;;
76373;SDS011;65197;50.164;8.012;2023-01-29T04:59:16;19.02;;;9.73;;
76373;SDS011;65197;50.164;8.012;2023-01-29T05:01:45;18.77;;;11.07;;
76373;SDS011;65197;50.164;8.012;2023-01-29T05:04:13;16.52;;;8.70;;
76373;SDS011;65197;50.164;8.012;2023-01-29T05:09:12;21.95;;;9.82;;
76373;SDS011;65197;50.164;8.012;2023-01-29T05:11:40;19.73;;;10.68;;
76373;SDS011;65197;50.164;8.012;2023-01-29T05:14:07;18.17;;;10.07;;
76373;SDS011;65197;50.164;8.012;2023-01-29T05:16:42;21.92;;;10.00;;
76373;SDS011;65197;50.164;8.012;2023-01-29T05:19:12;19.63;;;9.90;;
76373;SDS011;65197;50.164;8.012;2023-01-29T05:21:39;17.92;;;10.52;;
76373;SDS011;65197;50.164;8.012;2023-01-29T05:24:09;15.65;;;9.05;;
76373;SDS011;65197;50.164;8.012;2023-01-29T05:26:42;15.40;;;9.18;;
76373;SDS011;65197;50.164;8.012;2023-01-29T05:29:27;17.98;;;10.02;;
76373;SDS011;65197;50.164;8.012;2023-01-29T05:31:53;19.23;;;9.98;;
76373;SDS011;65197;50.164;8.012;2023-01-29T05:34:18;21.35;;;10.63;;
76373;SDS011;65197;50.164;8.012;2023-01-29T05:36:48;20.88;;;9.60;;
76373;SDS011;65197;50.164;8.012;2023-01-29T05:39:16;21.05;;;10.13;;
76373;SDS011;65197;50.164;8.012;2023-01-29T05:41:42;20.73;;;10.98;;
76373;SDS011;65197;50.164;8.012;2023-01-29T05:44:08;18.67;;;9.30;;
76373;SDS011;65197;50.164;8.012;2023-01-29T05:46:34;20.63;;;10.38;;
76373;SDS011;65197;50.164;8.012;2023-01-29T05:49:00;17.13;;;8.93;;
76373;SDS011;65197;50.164;8.012;2023-01-29T05:51:25;18.45;;;9.95;;
76373;SDS011;65197;50.164;8.012;2023-01-29T05:53:52;20.30;;;9.52;;
76373;SDS011;65197;50.164;8.012;2023-01-29T05:56:33;18.58;;;10.65;;
76373;SDS011;65197;50.164;8.012;2023-01-29T05:59:02;23.35;;;11.68;;
76373;SDS011;65197;50.164;8.012;2023-01-29T06:01:31;20.45;;;9.98;;
76373;SDS011;65197;50.164;8.012;2023-01-29T06:03:56;21.45;;;11.25;;
76373;SDS011;65197;50.164;8.012;2023-01-29T06:06:22;19.73;;;11.57;;
76373;SDS011;65197;50.164;8.012;2023-01-29T06:08:47;25.85;;;11.35;;
76373;SDS011;65197;50.164;8.012;2023-01-29T06:11:15;16.38;;;9.63;;
76373;SDS011;65197;50.164;8.012;2023-01-29T06:13:42;17.40;;;9.80;;
76373;SDS011;65197;50.164;8.012;2023-01-29T06:16:08;21.10;;;11.05;;
76373;SDS011;65197;50.164;8.012;2023-01-29T06:18:35;20.67;;;9.48;;
76373;SDS011;65197;50.164;8.012;2023-01-29T06:21:02;17.90;;;9.10;;
76373;SDS011;65197;50.164;8.012;2023-01-29T06:23:28;22.55;;;11.48;;
76373;SDS011;65197;50.164;8.012;2023-01-29T06:26:02;19.77;;;10.52;;
76373;SDS011;65197;50.164;8.012;2023-01-29T06:28:30;18.10;;;8.77;;
76373;SDS011;65197;50.164;8.012;2023-01-29T06:30:56;17.35;;;9.52;;
76373;SDS011;65197;50.164;8.012;2023-01-29T06:33:22;18.33;;;9.80;;
76373;SDS011;65197;50.164;8.012;2023-01-29T06:35:48;19.15;;;9.90;;
76373;SDS011;65197;50.164;8.012;2023-01-29T06:38:13;16.55;;;10.60;;
76373;SDS011;65197;50.164;8.012;2023-01-29T06:40:38;18.33;;;9.77;;
76373;SDS011;65197;50.164;8.012;2023-01-29T06:43:04;20.10;;;10.73;;
76373;SDS011;65197;50.164;8.012;2023-01-29T06:45:29;17.25;;;10.15;;
76373;SDS011;65197;50.164;8.012;2023-01-29T06:47:54;19.20;;;8.88;;
76373;SDS011;65197;50.164;8.012;2023-01-29T06:50:20;18.42;;;9.82;;
76373;SDS011;65197;50.164;8.012;2023-01-29T06:52:45;18.15;;;9.55;;
76373;SDS011;65197;50.164;8.012;2023-01-29T06:55:11;18.15;;;9.93;;
76373;SDS011;65197;50.164;8.012;2023-01-29T06:57:36;19.45;;;9.68;;
76373;SDS011;65197;50.164;8.012;2023-01-29T07:00:02;19.05;;;9.13;;
76373;SDS011;65197;50.164;8.012;2023-01-29T07:02:28;16.70;;;9.57;;
76373;SDS011;65197;50.164;8.012;2023-01-29T07:04:53;20.63;;;10.35;;
76373;SDS011;65197;50.164;8.012;2023-01-29T07:07:19;20.38;;;9.73;;
76373;SDS011;65197;50.164;8.012;2023-01-29T07:09:44;18.77;;;9.55;;
76373;SDS011;65197;50.164;8.012;2023-01-29T07:12:09;16.67;;;9.63;;
76373;SDS011;65197;50.164;8.012;2023-01-29T07:14:35;19.38;;;10.65;;
76373;SDS011;65197;50.164;8.012;2023-01-29T07:17:00;17.25;;;9.70;;
76373;SDS011;65197;50.164;8.012;2023-01-29T07:19:26;18.40;;;9.77;;
76373;SDS011;65197;50.164;8.012;2023-01-29T07:21:51;19.70;;;10.68;;
76373;SDS011;65197;50.164;8.012;2023-01-29T07:24:17;19.10;;;9.85;;
76373;SDS011;65197;50.164;8.012;2023-01-29T07:26:43;17.75;;;8.85;;
76373;SDS011;65197;50.164;8.012;2023-01-29T07:29:08;20.00;;;9.82;;
76373;SDS011;65197;50.164;8.012;2023-01-29T07:31:34;18.77;;;9.32;;
76373;SDS011;65197;50.164;8.012;2023-01-29T07:33:59;17.52;;;9.52;;
76373;SDS011;65197;50.164;8.012;2023-01-29T07:36:24;19.48;;;9.88;;
76373;SDS011;65197;50.164;8.012;2023-01-29T07:38:51;20.15;;;9.98;;
76373;SDS011;65197;50.164;8.012;2023-01-29T07:41:16;15.77;;;8.90;;
76373;SDS011;65197;50.164;8.012;2023-01-29T07:43:41;17.42;;;9.02;;
76373;SDS011;65197;50.164;8.012;2023-01-29T07:46:07;18.83;;;9.45;;
76373;SDS011;65197;50.164;8.012;2023-01-29T07:48:32;18.70;;;9.02;;
76373;SDS011;65197;50.164;8.012;2023-01-29T07:50:58;19.75;;;9.98;;
76373;SDS011;65197;50.164;8.012;2023-01-29T07:53:24;18.58;;;8.75;;
76373;SDS011;65197;50.164;8.012;2023-01-29T07:55:49;17.67;;;9.77;;
76373;SDS011;65197;50.164;8.012;2023-01-29T07:58:15;17.15;;;9.73;;
76373;SDS011;65197;50.164;8.012;2023-01-29T08:00:40;19.02;;;9.85;;
76373;SDS011;65197;50.164;8.012;2023-01-29T08:03:08;17.27;;;8.80;;
76373;SDS011;65197;50.164;8.012;2023-01-29T08:05:38;22.30;;;10.32;;
76373;SDS011;65197;50.164;8.012;2023-01-29T08:08:03;15.20;;;8.43;;
76373;SDS011;65197;50.164;8.012;2023-01-29T08:10:29;15.90;;;7.53;;
76373;SDS011;65197;50.164;8.012;2023-01-29T08:12:58;12.95;;;7.97;;
76373;SDS011;65197;50.164;8.012;2023-01-29T08:15:24;15.05;;;8.05;;
76373;SDS011;65197;50.164;8.012;2023-01-29T08:17:51;15.13;;;8.85;;
76373;SDS011;65197;50.164;8.012;2023-01-29T08:20:16;16.60;;;8.85;;
76373;SDS011;65197;50.164;8.012;2023-01-29T08:22:42;17.05;;;9.45;;
76373;SDS011;65197;50.164;8.012;2023-01-29T08:25:07;18.73;;;10.68;;
76373;SDS011;65197;50.164;8.012;2023-01-29T08:27:33;17.35;;;9.02;;
76373;SDS011;65197;50.164;8.012;2023-01-29T08:29:58;16.38;;;9.73;;
76373;SDS011;65197;50.164;8.012;2023-01-29T08:32:24;18.40;;;9.40;;
76373;SDS011;65197;50.164;8.012;2023-01-29T08:34:49;15.63;;;8.80;;
76373;SDS011;65197;50.164;8.012;2023-01-29T08:37:14;20.15;;;9.35;;
76373;SDS011;65197;50.164;8.012;2023-01-29T08:39:40;14.68;;;7.95;;
76373;SDS011;65197;50.164;8.012;2023-01-29T08:42:05;14.32;;;8.02;;
76373;SDS011;65197;50.164;8.012;2023-01-29T08:44:31;15.25;;;8.45;;
76373;SDS011;65197;50.164;8.012;2023-01-29T08:46:56;14.75;;;8.43;;
76373;SDS011;65197;50.164;8.012;2023-01-29T08:49:21;16.98;;;9.70;;
76373;SDS011;65197;50.164;8.012;2023-01-29T08:51:47;13.18;;;8.13;;
76373;SDS011;65197;50.164;8.012;2023-01-29T08:54:12;16.42;;;8.50;;
76373;SDS011;65197;50.164;8.012;2023-01-29T08:56:38;15.15;;;8.23;;
76373;SDS011;65197;50.164;8.012;2023-01-29T08:59:03;16.27;;;9.43;;
76373;SDS011;65197;50.164;8.012;2023-01-29T09:01:28;19.33;;;10.60;;
76373;SDS011;65197;50.164;8.012;2023-01-29T09:03:54;20.27;;;9.25;;
76373;SDS011;65197;50.164;8.012;2023-01-29T09:06:19;17.13;;;8.88;;
76373;SDS011;65197;50.164;8.012;2023-01-29T09:08:45;16.65;;;9.05;;
76373;SDS011;65197;50.164;8.012;2023-01-29T09:11:10;17.42;;;8.70;;
76373;SDS011;65197;50.164;8.012;2023-01-29T09:13:35;15.32;;;8.57;;
76373;SDS011;65197;50.164;8.012;2023-01-29T09:16:01;13.65;;;9.05;;
76373;SDS011;65197;50.164;8.012;2023-01-29T09:18:28;18.63;;;10.40;;
76373;SDS011;65197;50.164;8.012;2023-01-29T09:20:54;19.05;;;9.93;;
76373;SDS011;65197;50.164;8.012;2023-01-29T09:23:19;19.58;;;9.30;;
76373;SDS011;65197;50.164;8.012;2023-01-29T09:25:45;18.27;;;9.57;;
76373;SDS011;65197;50.164;8.012;2023-01-29T09:28:11;17.45;;;9.45;;
76373;SDS011;65197;50.164;8.012;2023-01-29T09:30:36;17.23;;;9.88;;
76373;SDS011;65197;50.164;8.012;2023-01-29T09:33:05;19.35;;;9.13;;
76373;SDS011;65197;50.164;8.012;2023-01-29T09:35:31;38.30;;;22.30;;
76373;SDS011;65197;50.164;8.012;2023-01-29T09:37:57;25.85;;;15.35;;
76373;SDS011;65197;50.164;8.012;2023-01-29T09:40:24;15.02;;;9.57;;
76373;SDS011;65197;50.164;8.012;2023-01-29T09:42:54;13.07;;;7.18;;
76373;SDS011;65197;50.164;8.012;2023-01-29T09:45:25;14.57;;;8.40;;
76373;SDS011;65197;50.164;8.012;2023-01-29T09:47:51;17.30;;;9.85;;
76373;SDS011;65197;50.164;8.012;2023-01-29T09:52:53;19.98;;;10.75;;
76373;SDS011;65197;50.164;8.012;2023-01-29T09:55:30;15.88;;;8.27;;
76373;SDS011;65197;50.164;8.012;2023-01-29T09:58:15;17.85;;;10.30;;
76373;SDS011;65197;50.164;8.012;2023-01-29T10:06:35;14.23;;;7.90;;
76373;SDS011;65197;50.164;8.012;2023-01-29T10:09:32;13.90;;;8.45;;
76373;SDS011;65197;50.164;8.012;2023-01-29T10:12:31;20.17;;;10.13;;
76373;SDS011;65197;50.164;8.012;2023-01-29T10:24:11;15.73;;;9.27;;
76373;SDS011;65197;50.164;8.012;2023-01-29T10:26:48;17.80;;;8.65;;
76373;SDS011;65197;50.164;8.012;2023-01-29T10:29:17;14.25;;;8.77;;
76373;SDS011;65197;50.164;8.012;2023-01-29T10:31:44;16.02;;;8.45;;
76373;SDS011;65197;50.164;8.012;2023-01-29T10:34:28;11.10;;;6.85;;
76373;SDS011;65197;50.164;8.012;2023-01-29T10:36:58;16.55;;;8.50;;
76373;SDS011;65197;50.164;8.012;2023-01-29T10:39:24;15.35;;;8.93;;
76373;SDS011;65197;50.164;8.012;2023-01-29T10:41:56;13.90;;;8.38;;
76373;SDS011;65197;50.164;8.012;2023-01-29T10:50:17;15.02;;;9.45;;
76373;SDS011;65197;50.164;8.012;2023-01-29T10:55:26;16.08;;;8.95;;
76373;SDS011;65197;50.164;8.012;2023-01-29T10:58:09;17.92;;;8.30;;
76373;SDS011;65197;50.164;8.012;2023-01-29T11:00:44;15.88;;;8.77;;
76373;SDS011;65197;50.164;8.012;2023-01-29T11:03:17;17.10;;;8.70;;
76373;SDS011;65197;50.164;8.012;2023-01-29T11:05:58;14.52;;;8.48;;
76373;SDS011;65197;50.164;8.012;2023-01-29T11:08:39;15.50;;;9.50;;
76373;SDS011;65197;50.164;8.012;2023-01-29T11:11:13;11.27;;;6.32;;
76373;SDS011;65197;50.164;8.012;2023-01-29T11:13:53;13.98;;;7.93;;
76373;SDS011;65197;50.164;8.012;2023-01-29T11:16:22;13.68;;;7.93;;
76373;SDS011;65197;50.164;8.012;2023-01-29T11:18:49;12.88;;;8.38;;
76373;SDS011;65197;50.164;8.012;2023-01-29T11:21:20;13.57;;;7.60;;
76373;SDS011;65197;50.164;8.012;2023-01-29T11:23:46;14.98;;;7.75;;
76373;SDS011;65197;50.164;8.012;2023-01-29T11:26:12;13.20;;;7.60;;
76373;SDS011;65197;50.164;8.012;2023-01-29T11:28:44;11.88;;;8.30;;
76373;SDS011;65197;50.164;8.012;2023-01-29T11:31:17;12.15;;;7.85;;
76373;SDS011;65197;50.164;8.012;2023-01-29T11:34:33;13.55;;;8.23;;
76373;SDS011;65197;50.164;8.012;2023-01-29T11:37:22;13.05;;;8.18;;
76373;SDS011;65197;50.164;8.012;2023-01-29T11:39:44;10.93;;;6.63;;
76373;SDS011;65197;50.164;8.012;2023-01-29T11:42:20;11.77;;;7.30;;
76373;SDS011;65197;50.164;8.012;2023-01-29T11:44:47;11.48;;;7.15;;
76373;SDS011;65197;50.164;8.012;2023-01-29T11:49:44;11.63;;;6.72;;
76373;SDS011;65197;50.164;8.012;2023-01-29T11:52:12;10.88;;;7.05;;
76373;SDS011;65197;50.164;8.012;2023-01-29T11:54:42;9.98;;;6.43;;
76373;SDS011;65197;50.164;8.012;2023-01-29T11:59:48;10.27;;;7.07;;
76373;SDS011;65197;50.164;8.012;2023-01-29T12:02:30;8.55;;;5.65;;
76373;SDS011;65197;50.164;8.012;2023-01-29T12:05:01;12.15;;;6.95;;
76373;SDS011;65197;50.164;8.012;2023-01-29T12:07:30;14.25;;;8.77;;
76373;SDS011;65197;50.164;8.012;2023-01-29T12:09:57;12.75;;;7.45;;
76373;SDS011;65197;50.164;8.012;2023-01-29T12:15:41;11.32;;;8.27;;
76373;SDS011;65197;50.164;8.012;2023-01-29T12:18:13;9.98;;;6.68;;
76373;SDS011;65197;50.164;8.012;2023-01-29T12:20:41;9.23;;;6.35;;
76373;SDS011;65197;50.164;8.012;2023-01-29T12:23:14;13.05;;;7.68;;
76373;SDS011;65197;50.164;8.012;2023-01-29T12:25:54;12.60;;;7.85;;
76373;SDS011;65197;50.164;8.012;2023-01-29T12:28:36;12.27;;;8.40;;
76373;SDS011;65197;50.164;8.012;2023-01-29T12:31:24;12.02;;;7.07;;
76373;SDS011;65197;50.164;8.012;2023-01-29T12:33:59;14.45;;;7.40;;
76373;SDS011;65197;50.164;8.012;2023-01-29T12:36:41;12.77;;;7.30;;
76373;SDS011;65197;50.164;8.012;2023-01-29T12:39:17;10.20;;;6.93;;
76373;SDS011;65197;50.164;8.012;2023-01-29T12:42:26;11.82;;;7.75;;
76373;SDS011;65197;50.164;8.012;2023-01-29T12:44:39;9.98;;;6.55;;
76373;SDS011;65197;50.164;8.012;2023-01-29T12:47:23;14.10;;;7.88;;
76373;SDS011;65197;50.164;8.012;2023-01-29T12:50:07;12.68;;;8.25;;
76373;SDS011;65197;50.164;8.012;2023-01-29T12:55:25;11.57;;;7.00;;
76373;SDS011;65197;50.164;8.012;2023-01-29T12:57:55;11.52;;;7.30;;
76373;SDS011;65197;50.164;8.012;2023-01-29T13:00:26;10.82;;;7.13;;
76373;SDS011;65197;50.164;8.012;2023-01-29T13:05:47;10.95;;;7.00;;
76373;SDS011;65197;50.164;8.012;2023-01-29T13:08:39;9.32;;;6.57;;
76373;SDS011;65197;50.164;8.012;2023-01-29T13:11:27;10.63;;;6.50;;
76373;SDS011;65197;50.164;8.012;2023-01-29T13:14:04;10.15;;;6.28;;
76373;SDS011;65197;50.164;8.012;2023-01-29T13:16:39;11.20;;;6.78;;
76373;SDS011;65197;50.164;8.012;2023-01-29T13:19:23;10.07;;;6.35;;
76373;SDS011;65197;50.164;8.012;2023-01-29T13:21:53;10.93;;;7.00;;
76373;SDS011;65197;50.164;8.012;2023-01-29T13:24:23;8.18;;;6.22;;
76373;SDS011;65197;50.164;8.012;2023-01-29T13:26:51;9.93;;;6.38;;
76373;SDS011;65197;50.164;8.012;2023-01-29T13:31:48;10.15;;;6.60;;
76373;SDS011;65197;50.164;8.012;2023-01-29T13:34:15;9.02;;;6.47;;
76373;SDS011;65197;50.164;8.012;2023-01-29T13:36:47;10.48;;;6.82;;
76373;SDS011;65197;50.164;8.012;2023-01-29T13:41:44;11.25;;;6.35;;
76373;SDS011;65197;50.164;8.012;2023-01-29T13:46:52;10.65;;;6.20;;
76373;SDS011;65197;50.164;8.012;2023-01-29T13:49:24;10.23;;;6.80;;
76373;SDS011;65197;50.164;8.012;2023-01-29T13:51:57;12.20;;;7.40;;
76373;SDS011;65197;50.164;8.012;2023-01-29T13:54:37;12.95;;;7.22;;
76373;SDS011;65197;50.164;8.012;2023-01-29T13:57:03;12.32;;;7.68;;
76373;SDS011;65197;50.164;8.012;2023-01-29T13:59:47;12.65;;;7.10;;
76373;SDS011;65197;50.164;8.012;2023-01-29T14:02:20;12.13;;;7.78;;
76373;SDS011;65197;50.164;8.012;2023-01-29T14:04:48;12.43;;;7.30;;
76373;SDS011;65197;50.164;8.012;2023-01-29T14:07:37;11.00;;;6.97;;
76373;SDS011;65197;50.164;8.012;2023-01-29T14:10:18;11.82;;;7.13;;
76373;SDS011;65197;50.164;8.012;2023-01-29T14:12:45;10.75;;;6.28;;
76373;SDS011;65197;50.164;8.012;2023-01-29T14:23:27;11.38;;;7.78;;
76373;SDS011;65197;50.164;8.012;2023-01-29T14:26:05;9.95;;;6.85;;
76373;SDS011;65197;50.164;8.012;2023-01-29T14:29:05;10.90;;;6.80;;
76373;SDS011;65197;50.164;8.012;2023-01-29T14:39:44;11.80;;;7.30;;
76373;SDS011;65197;50.164;8.012;2023-01-29T14:42:31;11.55;;;6.45;;
76373;SDS011;65197;50.164;8.012;2023-01-29T14:50:01;14.75;;;8.65;;
76373;SDS011;65197;50.164;8.012;2023-01-29T14:52:46;21.48;;;12.13;;
76373;SDS011;65197;50.164;8.012;2023-01-29T14:57:47;19.05;;;10.60;;
76373;SDS011;65197;50.164;8.012;2023-01-29T15:00:21;17.83;;;9.95;;
76373;SDS011;65197;50.164;8.012;2023-01-29T15:02:52;16.52;;;8.55;;
76373;SDS011;65197;50.164;8.012;2023-01-29T15:05:20;20.58;;;12.90;;
76373;SDS011;65197;50.164;8.012;2023-01-29T15:10:47;16.63;;;9.70;;
76373;SDS011;65197;50.164;8.012;2023-01-29T15:16:30;19.50;;;11.27;;
76373;SDS011;65197;50.164;8.012;2023-01-29T15:22:09;22.50;;;13.63;;
76373;SDS011;65197;50.164;8.012;2023-01-29T15:24:35;13.93;;;8.55;;
76373;SDS011;65197;50.164;8.012;2023-01-29T15:27:02;14.55;;;9.38;;
76373;SDS011;65197;50.164;8.012;2023-01-29T15:29:28;11.23;;;7.35;;
76373;SDS011;65197;50.164;8.012;2023-01-29T15:31:54;12.68;;;7.60;;
76373;SDS011;65197;50.164;8.012;2023-01-29T15:34:21;17.83;;;10.07;;
76373;SDS011;65197;50.164;8.012;2023-01-29T15:36:47;14.32;;;10.02;;
76373;SDS011;65197;50.164;8.012;2023-01-29T15:39:14;14.27;;;8.15;;
76373;SDS011;65197;50.164;8.012;2023-01-29T15:41:41;16.85;;;11.90;;
76373;SDS011;65197;50.164;8.012;2023-01-29T15:44:12;13.35;;;8.20;;
76373;SDS011;65197;50.164;8.012;2023-01-29T15:46:43;13.73;;;9.60;;
76373;SDS011;65197;50.164;8.012;2023-01-29T15:49:34;14.38;;;8.70;;
76373;SDS011;65197;50.164;8.012;2023-01-29T15:52:02;13.18;;;7.68;;
76373;SDS011;65197;50.164;8.012;2023-01-29T15:54:31;11.68;;;8.15;;
76373;SDS011;65197;50.164;8.012;2023-01-29T15:56:58;12.15;;;7.40;;
76373;SDS011;65197;50.164;8.012;2023-01-29T15:59:26;17.45;;;9.50;;
76373;SDS011;65197;50.164;8.012;2023-01-29T16:02:00;15.55;;;8.52;;
76373;SDS011;65197;50.164;8.012;2023-01-29T16:04:42;14.38;;;8.50;;
76373;SDS011;65197;50.164;8.012;2023-01-29T16:07:08;15.93;;;8.95;;
76373;SDS011;65197;50.164;8.012;2023-01-29T16:09:35;14.25;;;8.30;;
76373;SDS011;65197;50.164;8.012;2023-01-29T16:12:01;14.50;;;8.05;;
76373;SDS011;65197;50.164;8.012;2023-01-29T16:14:26;14.80;;;8.32;;
76373;SDS011;65197;50.164;8.012;2023-01-29T16:16:53;16.30;;;9.18;;
76373;SDS011;65197;50.164;8.012;2023-01-29T16:19:20;17.75;;;9.02;;
76373;SDS011;65197;50.164;8.012;2023-01-29T16:21:59;15.27;;;8.68;;
76373;SDS011;65197;50.164;8.012;2023-01-29T16:24:28;16.67;;;9.55;;
76373;SDS011;65197;50.164;8.012;2023-01-29T16:26:58;15.35;;;8.30;;
76373;SDS011;65197;50.164;8.012;2023-01-29T16:29:29;14.68;;;8.10;;
76373;SDS011;65197;50.164;8.012;2023-01-29T16:31:56;12.07;;;7.93;;
76373;SDS011;65197;50.164;8.012;2023-01-29T16:36:51;15.50;;;7.90;;
76373;SDS011;65197;50.164;8.012;2023-01-29T16:39:21;12.63;;;7.93;;
76373;SDS011;65197;50.164;8.012;2023-01-29T16:42:01;14.88;;;8.23;;
76373;SDS011;65197;50.164;8.012;2023-01-29T16:44:35;13.77;;;8.25;;
76373;SDS011;65197;50.164;8.012;2023-01-29T16:47:05;13.52;;;7.65;;
76373;SDS011;65197;50.164;8.012;2023-01-29T16:54:49;14.43;;;8.93;;
76373;SDS011;65197;50.164;8.012;2023-01-29T16:57:25;17.90;;;10.20;;
76373;SDS011;65197;50.164;8.012;2023-01-29T16:59:54;17.83;;;11.77;;
76373;SDS011;65197;50.164;8.012;2023-01-29T17:02:24;20.80;;;11.55;;
76373;SDS011;65197;50.164;8.012;2023-01-29T17:04:58;20.27;;;10.88;;
76373;SDS011;65197;50.164;8.012;2023-01-29T17:07:28;25.88;;;14.85;;
76373;SDS011;65197;50.164;8.012;2023-01-29T17:09:55;38.10;;;20.35;;
76373;SDS011;65197;50.164;8.012;2023-01-29T17:12:24;31.27;;;18.63;;
76373;SDS011;65197;50.164;8.012;2023-01-29T17:14:58;35.95;;;20.40;;